sensor_id;sensor_type;location;lat;lon;timestamp;P1;durP1;ratioP1;P2;durP2;ratioP2
15697;SDS011;7949;48.726;9.102;2022-12-11T00:01:37;31.17;;;14.30;;
15697;SDS011;7949;48.726;9.102;2022-12-11T00:04:04;34.13;;;15.17;;
15697;SDS011;7949;48.726;9.102;2022-12-11T00:06:31;26.07;;;12.27;;
15697;SDS011;7949;48.726;9.102;2022-12-11T00:08:58;30.60;;;14.37;;
15697;SDS011;7949;48.726;9.102;2022-12-11T00:11:26;30.67;;;13.63;;
15697;SDS011;7949;48.726;9.102;2022-12-11T00:13:52;30.80;;;15.07;;
15697;SDS011;7949;48.726;9.102;2022-12-11T00:16:19;34.27;;;13.17;;
15697;SDS011;7949;48.726;9.102;2022-12-11T00:18:46;28.73;;;13.50;;
15697;SDS011;7949;48.726;9.102;2022-12-11T00:21:13;28.33;;;12.30;;
15697;SDS011;7949;48.726;9.102;2022-12-11T00:23:42;29.30;;;12.83;;
15697;SDS011;7949;48.726;9.102;2022-12-11T00:26:11;28.87;;;12.30;;
15697;SDS011;7949;48.726;9.102;2022-12-11T00:28:43;28.07;;;13.30;;
15697;SDS011;7949;48.726;9.102;2022-12-11T00:31:12;29.70;;;12.87;;
15697;SDS011;7949;48.726;9.102;2022-12-11T00:33:40;28.57;;;12.17;;
15697;SDS011;7949;48.726;9.102;2022-12-11T00:36:10;27.73;;;13.00;;
15697;SDS011;7949;48.726;9.102;2022-12-11T00:38:37;27.33;;;13.10;;
15697;SDS011;7949;48.726;9.102;2022-12-11T00:41:04;26.00;;;12.70;;
15697;SDS011;7949;48.726;9.102;2022-12-11T00:43:31;27.43;;;13.60;;
15697;SDS011;7949;48.726;9.102;2022-12-11T00:45:59;24.83;;;12.00;;
15697;SDS011;7949;48.726;9.102;2022-12-11T00:48:27;27.07;;;13.60;;
15697;SDS011;7949;48.726;9.102;2022-12-11T00:50:53;29.17;;;13.70;;
15697;SDS011;7949;48.726;9.102;2022-12-11T00:53:20;30.57;;;13.30;;
15697;SDS011;7949;48.726;9.102;2022-12-11T00:55:47;25.77;;;12.60;;
15697;SDS011;7949;48.726;9.102;2022-12-11T00:58:14;31.23;;;13.60;;
15697;SDS011;7949;48.726;9.102;2022-12-11T01:00:41;30.50;;;14.53;;
15697;SDS011;7949;48.726;9.102;2022-12-11T01:03:10;28.60;;;13.33;;
15697;SDS011;7949;48.726;9.102;2022-12-11T01:05:39;28.03;;;13.47;;
15697;SDS011;7949;48.726;9.102;2022-12-11T01:08:18;30.33;;;13.70;;
15697;SDS011;7949;48.726;9.102;2022-12-11T01:10:45;28.57;;;13.80;;
15697;SDS011;7949;48.726;9.102;2022-12-11T01:13:11;30.20;;;13.43;;
15697;SDS011;7949;48.726;9.102;2022-12-11T01:15:38;27.73;;;14.17;;
15697;SDS011;7949;48.726;9.102;2022-12-11T01:18:07;28.17;;;14.63;;
15697;SDS011;7949;48.726;9.102;2022-12-11T01:20:36;30.17;;;14.90;;
15697;SDS011;7949;48.726;9.102;2022-12-11T01:23:06;34.70;;;15.80;;
15697;SDS011;7949;48.726;9.102;2022-12-11T01:25:34;33.53;;;15.43;;
15697;SDS011;7949;48.726;9.102;2022-12-11T01:28:02;28.20;;;14.60;;
15697;SDS011;7949;48.726;9.102;2022-12-11T01:30:32;34.23;;;16.00;;
15697;SDS011;7949;48.726;9.102;2022-12-11T01:32:59;26.50;;;15.23;;
15697;SDS011;7949;48.726;9.102;2022-12-11T01:35:26;28.97;;;15.20;;
15697;SDS011;7949;48.726;9.102;2022-12-11T01:37:55;29.70;;;15.63;;
15697;SDS011;7949;48.726;9.102;2022-12-11T01:40:23;33.10;;;16.03;;
15697;SDS011;7949;48.726;9.102;2022-12-11T01:42:51;31.80;;;15.20;;
15697;SDS011;7949;48.726;9.102;2022-12-11T01:45:31;31.17;;;15.30;;
15697;SDS011;7949;48.726;9.102;2022-12-11T01:48:05;32.30;;;15.53;;
15697;SDS011;7949;48.726;9.102;2022-12-11T01:50:35;33.67;;;15.77;;
15697;SDS011;7949;48.726;9.102;2022-12-11T01:53:08;32.90;;;14.60;;
15697;SDS011;7949;48.726;9.102;2022-12-11T01:55:38;29.43;;;15.83;;
15697;SDS011;7949;48.726;9.102;2022-12-11T01:58:06;32.20;;;16.10;;
15697;SDS011;7949;48.726;9.102;2022-12-11T02:00:35;30.33;;;16.20;;
15697;SDS011;7949;48.726;9.102;2022-12-11T02:03:02;33.70;;;16.23;;
15697;SDS011;7949;48.726;9.102;2022-12-11T02:05:29;32.43;;;15.37;;
15697;SDS011;7949;48.726;9.102;2022-12-11T02:07:57;29.03;;;14.90;;
15697;SDS011;7949;48.726;9.102;2022-12-11T02:10:30;26.73;;;14.77;;
15697;SDS011;7949;48.726;9.102;2022-12-11T02:13:10;28.00;;;14.33;;
15697;SDS011;7949;48.726;9.102;2022-12-11T02:15:41;27.40;;;14.87;;
15697;SDS011;7949;48.726;9.102;2022-12-11T02:18:15;26.43;;;14.27;;
15697;SDS011;7949;48.726;9.102;2022-12-11T02:20:54;24.67;;;12.90;;
15697;SDS011;7949;48.726;9.102;2022-12-11T02:23:37;28.67;;;14.57;;
15697;SDS011;7949;48.726;9.102;2022-12-11T02:26:21;28.00;;;13.07;;
15697;SDS011;7949;48.726;9.102;2022-12-11T02:28:59;26.77;;;13.00;;
15697;SDS011;7949;48.726;9.102;2022-12-11T02:31:28;25.50;;;12.93;;
15697;SDS011;7949;48.726;9.102;2022-12-11T02:34:02;24.50;;;12.13;;
15697;SDS011;7949;48.726;9.102;2022-12-11T02:36:34;22.50;;;12.53;;
15697;SDS011;7949;48.726;9.102;2022-12-11T02:39:03;21.67;;;12.60;;
15697;SDS011;7949;48.726;9.102;2022-12-11T02:41:32;21.63;;;11.43;;
15697;SDS011;7949;48.726;9.102;2022-12-11T02:44:01;22.60;;;12.20;;
15697;SDS011;7949;48.726;9.102;2022-12-11T02:46:29;22.47;;;10.97;;
15697;SDS011;7949;48.726;9.102;2022-12-11T02:48:58;19.57;;;10.93;;
15697;SDS011;7949;48.726;9.102;2022-12-11T02:51:29;24.00;;;10.43;;
15697;SDS011;7949;48.726;9.102;2022-12-11T02:53:58;17.30;;;10.63;;
15697;SDS011;7949;48.726;9.102;2022-12-11T02:56:29;19.97;;;10.33;;
15697;SDS011;7949;48.726;9.102;2022-12-11T02:59:03;16.97;;;9.93;;
15697;SDS011;7949;48.726;9.102;2022-12-11T03:01:35;18.27;;;10.03;;
15697;SDS011;7949;48.726;9.102;2022-12-11T03:04:02;16.80;;;9.73;;
15697;SDS011;7949;48.726;9.102;2022-12-11T03:06:31;15.80;;;9.27;;
15697;SDS011;7949;48.726;9.102;2022-12-11T03:09:01;17.50;;;9.57;;
15697;SDS011;7949;48.726;9.102;2022-12-11T03:11:29;20.77;;;9.63;;
15697;SDS011;7949;48.726;9.102;2022-12-11T03:13:55;17.50;;;9.90;;
15697;SDS011;7949;48.726;9.102;2022-12-11T03:16:27;18.57;;;9.70;;
15697;SDS011;7949;48.726;9.102;2022-12-11T03:19:01;18.97;;;9.73;;
15697;SDS011;7949;48.726;9.102;2022-12-11T03:21:37;17.50;;;10.07;;
15697;SDS011;7949;48.726;9.102;2022-12-11T03:24:08;16.90;;;9.57;;
15697;SDS011;7949;48.726;9.102;2022-12-11T03:26:41;19.20;;;9.93;;
15697;SDS011;7949;48.726;9.102;2022-12-11T03:29:12;19.77;;;9.87;;
15697;SDS011;7949;48.726;9.102;2022-12-11T03:31:44;18.50;;;8.77;;
15697;SDS011;7949;48.726;9.102;2022-12-11T03:34:17;18.67;;;9.60;;
15697;SDS011;7949;48.726;9.102;2022-12-11T03:36:47;19.80;;;10.77;;
15697;SDS011;7949;48.726;9.102;2022-12-11T03:39:17;18.07;;;9.80;;
15697;SDS011;7949;48.726;9.102;2022-12-11T03:41:48;20.60;;;10.77;;
15697;SDS011;7949;48.726;9.102;2022-12-11T03:44:19;21.40;;;11.73;;
15697;SDS011;7949;48.726;9.102;2022-12-11T03:46:48;21.10;;;11.63;;
15697;SDS011;7949;48.726;9.102;2022-12-11T03:49:18;22.40;;;12.23;;
15697;SDS011;7949;48.726;9.102;2022-12-11T03:51:47;24.10;;;11.63;;
15697;SDS011;7949;48.726;9.102;2022-12-11T03:54:17;21.40;;;12.10;;
15697;SDS011;7949;48.726;9.102;2022-12-11T03:56:44;19.97;;;11.13;;
15697;SDS011;7949;48.726;9.102;2022-12-11T03:59:13;24.00;;;12.27;;
15697;SDS011;7949;48.726;9.102;2022-12-11T04:01:40;21.37;;;11.47;;
15697;SDS011;7949;48.726;9.102;2022-12-11T04:04:08;22.63;;;12.07;;
15697;SDS011;7949;48.726;9.102;2022-12-11T04:06:35;20.80;;;11.40;;
15697;SDS011;7949;48.726;9.102;2022-12-11T04:09:02;21.00;;;11.70;;
15697;SDS011;7949;48.726;9.102;2022-12-11T04:11:29;21.50;;;11.50;;
15697;SDS011;7949;48.726;9.102;2022-12-11T04:14:02;25.10;;;12.60;;
15697;SDS011;7949;48.726;9.102;2022-12-11T04:16:49;21.57;;;11.83;;
15697;SDS011;7949;48.726;9.102;2022-12-11T04:19:18;22.03;;;11.73;;
15697;SDS011;7949;48.726;9.102;2022-12-11T04:22:03;23.10;;;12.43;;
15697;SDS011;7949;48.726;9.102;2022-12-11T04:24:47;20.80;;;11.00;;
15697;SDS011;7949;48.726;9.102;2022-12-11T04:27:15;21.57;;;12.53;;
15697;SDS011;7949;48.726;9.102;2022-12-11T04:30:03;21.17;;;11.47;;
15697;SDS011;7949;48.726;9.102;2022-12-11T04:32:32;19.80;;;11.00;;
15697;SDS011;7949;48.726;9.102;2022-12-11T04:35:00;24.67;;;11.73;;
15697;SDS011;7949;48.726;9.102;2022-12-11T04:37:27;21.17;;;11.40;;
15697;SDS011;7949;48.726;9.102;2022-12-11T04:39:54;20.73;;;11.47;;
15697;SDS011;7949;48.726;9.102;2022-12-11T04:42:21;23.40;;;11.57;;
15697;SDS011;7949;48.726;9.102;2022-12-11T04:44:47;22.87;;;11.40;;
15697;SDS011;7949;48.726;9.102;2022-12-11T04:47:14;17.97;;;10.10;;
15697;SDS011;7949;48.726;9.102;2022-12-11T04:49:41;20.47;;;11.07;;
15697;SDS011;7949;48.726;9.102;2022-12-11T04:52:12;20.30;;;10.77;;
15697;SDS011;7949;48.726;9.102;2022-12-11T04:54:39;26.33;;;10.07;;
15697;SDS011;7949;48.726;9.102;2022-12-11T04:57:06;21.10;;;10.33;;
15697;SDS011;7949;48.726;9.102;2022-12-11T04:59:33;23.53;;;11.50;;
15697;SDS011;7949;48.726;9.102;2022-12-11T05:02:01;19.53;;;10.97;;
15697;SDS011;7949;48.726;9.102;2022-12-11T05:04:29;18.00;;;10.43;;
15697;SDS011;7949;48.726;9.102;2022-12-11T05:06:59;25.13;;;11.60;;
15697;SDS011;7949;48.726;9.102;2022-12-11T05:09:28;19.47;;;10.60;;
15697;SDS011;7949;48.726;9.102;2022-12-11T05:11:55;24.37;;;11.87;;
15697;SDS011;7949;48.726;9.102;2022-12-11T05:14:22;20.70;;;10.73;;
15697;SDS011;7949;48.726;9.102;2022-12-11T05:16:50;23.20;;;11.87;;
15697;SDS011;7949;48.726;9.102;2022-12-11T05:19:17;24.87;;;12.00;;
15697;SDS011;7949;48.726;9.102;2022-12-11T05:21:44;25.43;;;12.83;;
15697;SDS011;7949;48.726;9.102;2022-12-11T05:24:11;22.50;;;11.50;;
15697;SDS011;7949;48.726;9.102;2022-12-11T05:26:39;18.37;;;10.80;;
15697;SDS011;7949;48.726;9.102;2022-12-11T05:29:06;21.10;;;10.87;;
15697;SDS011;7949;48.726;9.102;2022-12-11T05:31:33;21.47;;;11.60;;
15697;SDS011;7949;48.726;9.102;2022-12-11T05:34:01;20.87;;;11.63;;
15697;SDS011;7949;48.726;9.102;2022-12-11T05:36:29;19.10;;;10.20;;
15697;SDS011;7949;48.726;9.102;2022-12-11T05:38:59;21.27;;;11.60;;
15697;SDS011;7949;48.726;9.102;2022-12-11T05:41:28;22.93;;;10.97;;
15697;SDS011;7949;48.726;9.102;2022-12-11T05:43:58;18.83;;;9.73;;
15697;SDS011;7949;48.726;9.102;2022-12-11T05:46:26;22.23;;;10.97;;
15697;SDS011;7949;48.726;9.102;2022-12-11T05:48:54;26.40;;;11.43;;
15697;SDS011;7949;48.726;9.102;2022-12-11T05:51:22;22.00;;;11.10;;
15697;SDS011;7949;48.726;9.102;2022-12-11T05:53:50;22.83;;;11.33;;
15697;SDS011;7949;48.726;9.102;2022-12-11T05:56:20;25.70;;;9.87;;
15697;SDS011;7949;48.726;9.102;2022-12-11T05:58:49;19.83;;;10.77;;
15697;SDS011;7949;48.726;9.102;2022-12-11T06:01:18;27.90;;;11.27;;
15697;SDS011;7949;48.726;9.102;2022-12-11T06:03:47;20.03;;;9.90;;
15697;SDS011;7949;48.726;9.102;2022-12-11T06:06:14;18.60;;;9.57;;
15697;SDS011;7949;48.726;9.102;2022-12-11T06:08:41;22.67;;;10.67;;
15697;SDS011;7949;48.726;9.102;2022-12-11T06:11:10;18.00;;;9.80;;
15697;SDS011;7949;48.726;9.102;2022-12-11T06:13:38;21.63;;;10.57;;
15697;SDS011;7949;48.726;9.102;2022-12-11T06:16:05;22.23;;;10.67;;
15697;SDS011;7949;48.726;9.102;2022-12-11T06:18:36;23.77;;;11.40;;
15697;SDS011;7949;48.726;9.102;2022-12-11T06:21:10;21.43;;;10.77;;
15697;SDS011;7949;48.726;9.102;2022-12-11T06:23:38;21.63;;;10.27;;
15697;SDS011;7949;48.726;9.102;2022-12-11T06:26:05;20.13;;;10.37;;
15697;SDS011;7949;48.726;9.102;2022-12-11T06:28:32;22.43;;;10.50;;
15697;SDS011;7949;48.726;9.102;2022-12-11T06:30:59;20.23;;;10.50;;
15697;SDS011;7949;48.726;9.102;2022-12-11T06:33:27;24.00;;;10.73;;
15697;SDS011;7949;48.726;9.102;2022-12-11T06:35:55;22.27;;;10.17;;
15697;SDS011;7949;48.726;9.102;2022-12-11T06:38:26;20.13;;;10.70;;
15697;SDS011;7949;48.726;9.102;2022-12-11T06:40:53;24.87;;;10.63;;
15697;SDS011;7949;48.726;9.102;2022-12-11T06:43:21;18.80;;;10.17;;
15697;SDS011;7949;48.726;9.102;2022-12-11T06:45:48;18.80;;;9.63;;
15697;SDS011;7949;48.726;9.102;2022-12-11T06:48:15;18.70;;;10.30;;
15697;SDS011;7949;48.726;9.102;2022-12-11T06:50:42;25.53;;;11.63;;
15697;SDS011;7949;48.726;9.102;2022-12-11T06:53:12;22.17;;;10.63;;
15697;SDS011;7949;48.726;9.102;2022-12-11T06:55:40;22.00;;;10.53;;
15697;SDS011;7949;48.726;9.102;2022-12-11T06:58:07;23.37;;;11.43;;
15697;SDS011;7949;48.726;9.102;2022-12-11T07:00:35;27.03;;;11.57;;
15697;SDS011;7949;48.726;9.102;2022-12-11T07:03:03;23.60;;;11.20;;
15697;SDS011;7949;48.726;9.102;2022-12-11T07:05:30;24.97;;;11.43;;
15697;SDS011;7949;48.726;9.102;2022-12-11T07:07:58;21.83;;;10.07;;
15697;SDS011;7949;48.726;9.102;2022-12-11T07:10:26;21.37;;;10.67;;
15697;SDS011;7949;48.726;9.102;2022-12-11T07:12:53;20.27;;;10.67;;
15697;SDS011;7949;48.726;9.102;2022-12-11T07:15:21;24.23;;;10.63;;
15697;SDS011;7949;48.726;9.102;2022-12-11T07:17:48;22.43;;;10.90;;
15697;SDS011;7949;48.726;9.102;2022-12-11T07:20:15;22.60;;;10.37;;
15697;SDS011;7949;48.726;9.102;2022-12-11T07:22:42;23.07;;;10.33;;
15697;SDS011;7949;48.726;9.102;2022-12-11T07:25:09;20.13;;;11.27;;
15697;SDS011;7949;48.726;9.102;2022-12-11T07:27:37;23.03;;;10.53;;
15697;SDS011;7949;48.726;9.102;2022-12-11T07:30:06;22.77;;;10.77;;
15697;SDS011;7949;48.726;9.102;2022-12-11T07:32:34;22.40;;;11.17;;
15697;SDS011;7949;48.726;9.102;2022-12-11T07:35:01;25.00;;;11.43;;
15697;SDS011;7949;48.726;9.102;2022-12-11T07:37:28;22.63;;;11.87;;
15697;SDS011;7949;48.726;9.102;2022-12-11T07:39:55;26.60;;;12.23;;
15697;SDS011;7949;48.726;9.102;2022-12-11T07:42:22;22.07;;;12.00;;
15697;SDS011;7949;48.726;9.102;2022-12-11T07:44:53;28.20;;;12.97;;
15697;SDS011;7949;48.726;9.102;2022-12-11T07:47:20;29.00;;;14.23;;
15697;SDS011;7949;48.726;9.102;2022-12-11T07:49:47;27.47;;;12.00;;
15697;SDS011;7949;48.726;9.102;2022-12-11T07:52:14;25.77;;;12.07;;
15697;SDS011;7949;48.726;9.102;2022-12-11T07:54:41;24.77;;;11.97;;
15697;SDS011;7949;48.726;9.102;2022-12-11T07:57:07;25.70;;;11.27;;
15697;SDS011;7949;48.726;9.102;2022-12-11T07:59:34;24.13;;;11.40;;
15697;SDS011;7949;48.726;9.102;2022-12-11T08:02:03;24.93;;;11.50;;
15697;SDS011;7949;48.726;9.102;2022-12-11T08:04:30;23.77;;;11.80;;
15697;SDS011;7949;48.726;9.102;2022-12-11T08:06:57;23.30;;;12.10;;
15697;SDS011;7949;48.726;9.102;2022-12-11T08:09:24;25.07;;;11.43;;
15697;SDS011;7949;48.726;9.102;2022-12-11T08:11:51;24.70;;;11.77;;
15697;SDS011;7949;48.726;9.102;2022-12-11T08:14:18;25.97;;;11.97;;
15697;SDS011;7949;48.726;9.102;2022-12-11T08:16:45;20.63;;;11.53;;
15697;SDS011;7949;48.726;9.102;2022-12-11T08:19:14;27.33;;;11.87;;
15697;SDS011;7949;48.726;9.102;2022-12-11T08:21:41;25.63;;;12.30;;
15697;SDS011;7949;48.726;9.102;2022-12-11T08:24:09;24.70;;;11.73;;
15697;SDS011;7949;48.726;9.102;2022-12-11T08:26:35;25.03;;;12.90;;
15697;SDS011;7949;48.726;9.102;2022-12-11T08:29:02;23.90;;;12.20;;
15697;SDS011;7949;48.726;9.102;2022-12-11T08:31:29;24.70;;;12.33;;
15697;SDS011;7949;48.726;9.102;2022-12-11T08:33:57;25.07;;;10.77;;
15697;SDS011;7949;48.726;9.102;2022-12-11T08:36:25;20.10;;;10.33;;
15697;SDS011;7949;48.726;9.102;2022-12-11T08:38:52;21.53;;;11.07;;
15697;SDS011;7949;48.726;9.102;2022-12-11T08:41:21;22.73;;;11.23;;
15697;SDS011;7949;48.726;9.102;2022-12-11T08:43:49;24.23;;;12.20;;
15697;SDS011;7949;48.726;9.102;2022-12-11T08:46:19;21.70;;;11.10;;
15697;SDS011;7949;48.726;9.102;2022-12-11T08:48:46;25.27;;;12.10;;
15697;SDS011;7949;48.726;9.102;2022-12-11T08:51:15;21.13;;;11.60;;
15697;SDS011;7949;48.726;9.102;2022-12-11T08:53:45;27.30;;;11.97;;
15697;SDS011;7949;48.726;9.102;2022-12-11T08:56:13;20.43;;;10.30;;
15697;SDS011;7949;48.726;9.102;2022-12-11T08:58:41;26.37;;;10.83;;
15697;SDS011;7949;48.726;9.102;2022-12-11T09:01:09;22.63;;;10.47;;
15697;SDS011;7949;48.726;9.102;2022-12-11T09:03:38;20.83;;;10.40;;
15697;SDS011;7949;48.726;9.102;2022-12-11T09:06:06;18.30;;;9.80;;
15697;SDS011;7949;48.726;9.102;2022-12-11T09:08:34;23.57;;;12.33;;
15697;SDS011;7949;48.726;9.102;2022-12-11T09:11:03;18.83;;;9.57;;
15697;SDS011;7949;48.726;9.102;2022-12-11T09:13:31;25.33;;;11.97;;
15697;SDS011;7949;48.726;9.102;2022-12-11T09:15:58;19.63;;;10.13;;
15697;SDS011;7949;48.726;9.102;2022-12-11T09:18:25;20.27;;;10.20;;
15697;SDS011;7949;48.726;9.102;2022-12-11T09:20:58;19.43;;;10.27;;
15697;SDS011;7949;48.726;9.102;2022-12-11T09:23:26;19.53;;;9.97;;
15697;SDS011;7949;48.726;9.102;2022-12-11T09:25:56;20.83;;;10.47;;
15697;SDS011;7949;48.726;9.102;2022-12-11T09:28:24;20.63;;;9.87;;
15697;SDS011;7949;48.726;9.102;2022-12-11T09:30:51;22.53;;;11.23;;
15697;SDS011;7949;48.726;9.102;2022-12-11T09:33:18;20.17;;;10.33;;
15697;SDS011;7949;48.726;9.102;2022-12-11T09:35:45;22.03;;;11.97;;
15697;SDS011;7949;48.726;9.102;2022-12-11T09:38:21;24.50;;;12.03;;
15697;SDS011;7949;48.726;9.102;2022-12-11T09:40:48;24.63;;;11.83;;
15697;SDS011;7949;48.726;9.102;2022-12-11T09:43:17;20.80;;;11.03;;
15697;SDS011;7949;48.726;9.102;2022-12-11T09:45:56;22.97;;;11.53;;
15697;SDS011;7949;48.726;9.102;2022-12-11T09:48:26;23.03;;;12.47;;
15697;SDS011;7949;48.726;9.102;2022-12-11T09:50:54;19.70;;;10.10;;
15697;SDS011;7949;48.726;9.102;2022-12-11T09:53:28;22.07;;;10.97;;
15697;SDS011;7949;48.726;9.102;2022-12-11T09:55:59;22.33;;;11.03;;
15697;SDS011;7949;48.726;9.102;2022-12-11T09:58:38;22.77;;;11.57;;
15697;SDS011;7949;48.726;9.102;2022-12-11T10:01:13;21.03;;;10.93;;
15697;SDS011;7949;48.726;9.102;2022-12-11T10:03:53;19.33;;;9.83;;
15697;SDS011;7949;48.726;9.102;2022-12-11T10:06:32;17.30;;;9.53;;
15697;SDS011;7949;48.726;9.102;2022-12-11T10:09:05;20.33;;;10.80;;
15697;SDS011;7949;48.726;9.102;2022-12-11T10:11:50;17.47;;;9.80;;
15697;SDS011;7949;48.726;9.102;2022-12-11T10:14:27;16.63;;;8.33;;
15697;SDS011;7949;48.726;9.102;2022-12-11T10:17:03;15.50;;;8.80;;
15697;SDS011;7949;48.726;9.102;2022-12-11T10:19:36;16.20;;;8.63;;
15697;SDS011;7949;48.726;9.102;2022-12-11T10:22:03;14.93;;;8.73;;
15697;SDS011;7949;48.726;9.102;2022-12-11T10:24:35;11.57;;;7.33;;
15697;SDS011;7949;48.726;9.102;2022-12-11T10:27:14;16.63;;;8.83;;
15697;SDS011;7949;48.726;9.102;2022-12-11T10:29:46;14.07;;;7.30;;
15697;SDS011;7949;48.726;9.102;2022-12-11T10:32:20;15.47;;;7.63;;
15697;SDS011;7949;48.726;9.102;2022-12-11T10:34:50;15.03;;;8.70;;
15697;SDS011;7949;48.726;9.102;2022-12-11T10:37:24;16.20;;;8.87;;
15697;SDS011;7949;48.726;9.102;2022-12-11T10:39:54;16.03;;;8.90;;
15697;SDS011;7949;48.726;9.102;2022-12-11T10:42:21;19.50;;;8.63;;
15697;SDS011;7949;48.726;9.102;2022-12-11T10:44:57;16.80;;;8.87;;
15697;SDS011;7949;48.726;9.102;2022-12-11T10:47:26;16.77;;;8.90;;
15697;SDS011;7949;48.726;9.102;2022-12-11T10:49:54;17.90;;;8.43;;
15697;SDS011;7949;48.726;9.102;2022-12-11T10:52:23;15.67;;;8.53;;
15697;SDS011;7949;48.726;9.102;2022-12-11T10:54:55;16.63;;;8.57;;
15697;SDS011;7949;48.726;9.102;2022-12-11T10:57:26;19.63;;;8.57;;
15697;SDS011;7949;48.726;9.102;2022-12-11T10:59:56;14.87;;;7.63;;
15697;SDS011;7949;48.726;9.102;2022-12-11T11:02:29;16.63;;;8.00;;
15697;SDS011;7949;48.726;9.102;2022-12-11T11:04:58;16.43;;;7.93;;
15697;SDS011;7949;48.726;9.102;2022-12-11T11:07:27;14.50;;;8.07;;
15697;SDS011;7949;48.726;9.102;2022-12-11T11:10:05;15.47;;;7.77;;
15697;SDS011;7949;48.726;9.102;2022-12-11T11:12:41;16.60;;;8.27;;
15697;SDS011;7949;48.726;9.102;2022-12-11T11:15:11;13.43;;;7.23;;
15697;SDS011;7949;48.726;9.102;2022-12-11T11:17:41;14.93;;;7.87;;
15697;SDS011;7949;48.726;9.102;2022-12-11T11:20:11;16.53;;;8.03;;
15697;SDS011;7949;48.726;9.102;2022-12-11T11:22:44;15.87;;;8.83;;
15697;SDS011;7949;48.726;9.102;2022-12-11T11:25:15;14.00;;;7.80;;
15697;SDS011;7949;48.726;9.102;2022-12-11T11:27:46;13.27;;;7.17;;
15697;SDS011;7949;48.726;9.102;2022-12-11T11:30:21;17.07;;;8.90;;
15697;SDS011;7949;48.726;9.102;2022-12-11T11:32:50;16.07;;;8.67;;
15697;SDS011;7949;48.726;9.102;2022-12-11T11:35:21;19.40;;;10.00;;
15697;SDS011;7949;48.726;9.102;2022-12-11T11:37:53;17.53;;;8.53;;
15697;SDS011;7949;48.726;9.102;2022-12-11T11:40:26;24.87;;;9.73;;
15697;SDS011;7949;48.726;9.102;2022-12-11T11:42:56;21.40;;;10.40;;
15697;SDS011;7949;48.726;9.102;2022-12-11T11:45:35;19.17;;;10.10;;
15697;SDS011;7949;48.726;9.102;2022-12-11T11:48:10;15.87;;;8.80;;
15697;SDS011;7949;48.726;9.102;2022-12-11T11:50:45;20.30;;;11.10;;
15697;SDS011;7949;48.726;9.102;2022-12-11T11:53:16;19.27;;;10.33;;
15697;SDS011;7949;48.726;9.102;2022-12-11T11:55:50;18.80;;;9.53;;
15697;SDS011;7949;48.726;9.102;2022-12-11T11:58:25;20.03;;;10.17;;
15697;SDS011;7949;48.726;9.102;2022-12-11T12:00:59;20.40;;;10.27;;
15697;SDS011;7949;48.726;9.102;2022-12-11T12:03:25;18.43;;;10.27;;
15697;SDS011;7949;48.726;9.102;2022-12-11T12:05:54;21.60;;;11.10;;
15697;SDS011;7949;48.726;9.102;2022-12-11T12:08:36;21.27;;;10.17;;
15697;SDS011;7949;48.726;9.102;2022-12-11T12:11:12;19.57;;;10.67;;
15697;SDS011;7949;48.726;9.102;2022-12-11T12:13:53;18.90;;;9.77;;
15697;SDS011;7949;48.726;9.102;2022-12-11T12:16:32;16.70;;;9.17;;
15697;SDS011;7949;48.726;9.102;2022-12-11T12:19:13;22.87;;;11.53;;
15697;SDS011;7949;48.726;9.102;2022-12-11T12:21:52;19.27;;;9.63;;
15697;SDS011;7949;48.726;9.102;2022-12-11T12:24:22;17.57;;;10.13;;
15697;SDS011;7949;48.726;9.102;2022-12-11T12:27:00;16.67;;;9.00;;
15697;SDS011;7949;48.726;9.102;2022-12-11T12:29:39;17.27;;;8.77;;
15697;SDS011;7949;48.726;9.102;2022-12-11T12:32:14;19.47;;;9.23;;
15697;SDS011;7949;48.726;9.102;2022-12-11T12:34:59;19.30;;;9.63;;
15697;SDS011;7949;48.726;9.102;2022-12-11T12:37:43;18.67;;;9.47;;
15697;SDS011;7949;48.726;9.102;2022-12-11T12:40:18;18.47;;;9.10;;
15697;SDS011;7949;48.726;9.102;2022-12-11T12:42:53;17.07;;;8.90;;
15697;SDS011;7949;48.726;9.102;2022-12-11T12:45:30;16.00;;;8.83;;
15697;SDS011;7949;48.726;9.102;2022-12-11T12:48:07;16.83;;;8.37;;
15697;SDS011;7949;48.726;9.102;2022-12-11T12:50:36;19.97;;;9.57;;
15697;SDS011;7949;48.726;9.102;2022-12-11T12:53:06;16.70;;;9.50;;
15697;SDS011;7949;48.726;9.102;2022-12-11T12:55:39;18.30;;;9.57;;
15697;SDS011;7949;48.726;9.102;2022-12-11T12:58:21;22.57;;;9.80;;
15697;SDS011;7949;48.726;9.102;2022-12-11T13:00:53;18.77;;;9.90;;
15697;SDS011;7949;48.726;9.102;2022-12-11T13:03:34;15.43;;;8.73;;
15697;SDS011;7949;48.726;9.102;2022-12-11T13:06:14;15.83;;;8.83;;
15697;SDS011;7949;48.726;9.102;2022-12-11T13:08:52;18.20;;;9.07;;
15697;SDS011;7949;48.726;9.102;2022-12-11T13:11:20;20.73;;;11.10;;
15697;SDS011;7949;48.726;9.102;2022-12-11T13:14:00;19.63;;;11.33;;
15697;SDS011;7949;48.726;9.102;2022-12-11T13:16:33;19.43;;;11.30;;
15697;SDS011;7949;48.726;9.102;2022-12-11T13:19:03;18.00;;;11.03;;
15697;SDS011;7949;48.726;9.102;2022-12-11T13:21:42;19.73;;;11.30;;
15697;SDS011;7949;48.726;9.102;2022-12-11T13:24:23;22.40;;;11.87;;
15697;SDS011;7949;48.726;9.102;2022-12-11T13:26:52;16.90;;;10.23;;
15697;SDS011;7949;48.726;9.102;2022-12-11T13:29:29;22.27;;;11.10;;
15697;SDS011;7949;48.726;9.102;2022-12-11T13:31:58;19.47;;;10.00;;
15697;SDS011;7949;48.726;9.102;2022-12-11T13:34:30;17.77;;;10.73;;
15697;SDS011;7949;48.726;9.102;2022-12-11T13:36:58;24.70;;;10.53;;
15697;SDS011;7949;48.726;9.102;2022-12-11T13:39:29;22.87;;;10.13;;
15697;SDS011;7949;48.726;9.102;2022-12-11T13:42:01;18.90;;;9.83;;
15697;SDS011;7949;48.726;9.102;2022-12-11T13:44:33;18.90;;;9.83;;
15697;SDS011;7949;48.726;9.102;2022-12-11T13:47:03;18.97;;;11.07;;
15697;SDS011;7949;48.726;9.102;2022-12-11T13:49:35;22.83;;;11.93;;
15697;SDS011;7949;48.726;9.102;2022-12-11T13:52:04;19.60;;;11.17;;
15697;SDS011;7949;48.726;9.102;2022-12-11T13:54:32;22.57;;;11.63;;
15697;SDS011;7949;48.726;9.102;2022-12-11T13:57:02;21.47;;;12.17;;
15697;SDS011;7949;48.726;9.102;2022-12-11T13:59:41;23.50;;;12.37;;
15697;SDS011;7949;48.726;9.102;2022-12-11T14:02:11;26.33;;;13.30;;
15697;SDS011;7949;48.726;9.102;2022-12-11T14:04:56;25.20;;;13.53;;
15697;SDS011;7949;48.726;9.102;2022-12-11T14:07:26;24.33;;;13.97;;
15697;SDS011;7949;48.726;9.102;2022-12-11T14:09:58;24.87;;;13.80;;
15697;SDS011;7949;48.726;9.102;2022-12-11T14:12:26;29.63;;;14.73;;
15697;SDS011;7949;48.726;9.102;2022-12-11T14:14:55;31.70;;;17.23;;
15697;SDS011;7949;48.726;9.102;2022-12-11T14:17:28;28.53;;;15.20;;
15697;SDS011;7949;48.726;9.102;2022-12-11T14:19:59;30.83;;;16.03;;
15697;SDS011;7949;48.726;9.102;2022-12-11T14:22:29;30.37;;;14.80;;
15697;SDS011;7949;48.726;9.102;2022-12-11T14:24:57;30.27;;;16.10;;
15697;SDS011;7949;48.726;9.102;2022-12-11T14:27:29;33.40;;;16.50;;
15697;SDS011;7949;48.726;9.102;2022-12-11T14:29:56;31.27;;;17.33;;
15697;SDS011;7949;48.726;9.102;2022-12-11T14:32:26;29.10;;;15.70;;
15697;SDS011;7949;48.726;9.102;2022-12-11T14:34:56;34.50;;;16.70;;
15697;SDS011;7949;48.726;9.102;2022-12-11T14:37:28;30.80;;;15.43;;
15697;SDS011;7949;48.726;9.102;2022-12-11T14:39:56;30.13;;;15.20;;
15697;SDS011;7949;48.726;9.102;2022-12-11T14:42:27;32.60;;;16.27;;
15697;SDS011;7949;48.726;9.102;2022-12-11T14:44:59;32.80;;;14.03;;
15697;SDS011;7949;48.726;9.102;2022-12-11T14:47:32;34.97;;;15.73;;
15697;SDS011;7949;48.726;9.102;2022-12-11T14:50:06;31.13;;;15.00;;
15697;SDS011;7949;48.726;9.102;2022-12-11T14:52:37;31.47;;;15.83;;
15697;SDS011;7949;48.726;9.102;2022-12-11T14:55:07;32.93;;;16.17;;
15697;SDS011;7949;48.726;9.102;2022-12-11T14:57:41;36.97;;;17.87;;